Time;durP1;ratioP1;P1;durP2;ratioP2;P2;SDS_P1;SDS_P2;PMS_P1;PMS_P2;Temp;Humidity;BMP_temperature;BMP_pressure;BME280_temperature;BME280_humidity;BME280_pressure;Samples;Min_cycle;Max_cycle;Signal;HPM_P1;HPM_P2
2023/09/04 00:01:21;;;;;;;20.42;13.32;;;16.80;99.90;;;;;;4901753;29;20039;-72
2023/09/04 00:03:47;;;;;;;21.15;12.82;;;16.80;99.90;;;;;;4902291;29;20028;-71
2023/09/04 00:06:13;;;;;;;19.50;13.48;;;16.80;99.90;;;;;;4903554;29;20044;-72
2023/09/04 00:08:38;;;;;;;19.05;13.07;;;16.70;99.90;;;;;;4903508;29;20031;-71
2023/09/04 00:11:04;;;;;;;18.70;13.27;;;16.70;99.90;;;;;;4897521;29;20598;-72
2023/09/04 00:13:30;;;;;;;20.90;12.85;;;16.70;99.90;;;;;;4899199;29;20059;-72
2023/09/04 00:15:56;;;;;;;16.75;12.60;;;16.70;99.90;;;;;;4900505;29;20570;-72
2023/09/04 00:18:22;;;;;;;17.40;12.48;;;16.70;99.90;;;;;;4889150;29;20020;-72
2023/09/04 00:20:48;;;;;;;17.42;12.35;;;16.70;99.90;;;;;;4884083;29;20162;-72
2023/09/04 00:23:14;;;;;;;15.25;12.07;;;16.60;99.90;;;;;;4895503;29;20130;-72
2023/09/04 00:25:40;;;;;;;18.63;13.05;;;16.60;99.90;;;;;;4899006;29;20156;-72
2023/09/04 00:28:05;;;;;;;16.83;11.85;;;16.60;99.90;;;;;;4896186;29;20160;-72
2023/09/04 00:30:31;;;;;;;19.10;13.60;;;16.60;99.90;;;;;;4902256;29;20523;-72
2023/09/04 00:32:57;;;;;;;15.70;12.30;;;16.50;99.90;;;;;;4903548;29;20114;-72
2023/09/04 00:35:22;;;;;;;14.98;11.82;;;16.50;99.90;;;;;;4900158;29;20032;-72
2023/09/04 00:37:48;;;;;;;16.77;12.25;;;16.40;99.90;;;;;;4902668;29;20059;-73
2023/09/04 00:40:14;;;;;;;17.55;12.27;;;16.50;99.90;;;;;;4903448;29;20431;-72
2023/09/04 00:42:39;;;;;;;19.90;12.25;;;16.40;99.90;;;;;;4900029;29;20024;-72
2023/09/04 00:45:11;;;;;;;19.13;13.38;;;16.40;99.90;;;;;;4885568;29;20582;-72
2023/09/04 00:47:38;;;;;;;19.42;14.10;;;16.40;99.90;;;;;;4888014;29;20197;-72
2023/09/04 00:50:07;;;;;;;23.02;14.98;;;16.40;99.90;;;;;;4897483;29;20522;-72
2023/09/04 00:52:32;;;;;;;19.83;14.70;;;16.30;99.90;;;;;;4901235;29;20392;-72
2023/09/04 00:55:00;;;;;;;19.15;14.25;;;16.30;99.90;;;;;;4903055;29;20042;-72
2023/09/04 00:57:26;;;;;;;21.13;14.57;;;16.30;99.90;;;;;;4896513;29;20124;-72
2023/09/04 00:59:52;;;;;;;20.65;14.98;;;16.30;99.90;;;;;;4883996;29;20092;-72
2023/09/04 01:02:18;;;;;;;22.13;15.40;;;16.30;99.90;;;;;;4900493;29;20040;-71
2023/09/04 01:04:44;;;;;;;20.80;14.80;;;16.30;99.90;;;;;;4898233;29;20071;-72
2023/09/04 01:07:09;;;;;;;20.52;15.27;;;16.30;99.90;;;;;;4900008;29;20389;-72
2023/09/04 01:09:35;;;;;;;20.52;14.25;;;16.30;99.90;;;;;;4903367;29;20032;-72
2023/09/04 01:12:14;;;;;;;19.48;14.60;;;16.30;99.90;;;;;;4898616;29;20036;-72
2023/09/04 01:14:45;;;;;;;25.40;15.27;;;16.30;99.90;;;;;;4884353;29;20020;-72
2023/09/04 01:17:12;;;;;;;22.85;15.77;;;16.20;99.90;;;;;;4888413;29;20036;-72
2023/09/04 01:19:39;;;;;;;22.40;15.73;;;16.20;99.90;;;;;;4901763;29;20036;-72
2023/09/04 01:22:08;;;;;;;23.23;15.95;;;16.20;99.90;;;;;;4903050;29;20039;-72
2023/09/04 01:24:35;;;;;;;27.85;17.83;;;16.20;99.90;;;;;;4903127;29;20056;-72
2023/09/04 01:27:13;;;;;;;27.23;16.88;;;16.20;99.90;;;;;;4900764;29;20032;-72
2023/09/04 01:29:47;;;;;;;27.65;19.35;;;16.20;99.90;;;;;;4901169;29;20392;-72
2023/09/04 01:32:26;;;;;;;32.10;21.02;;;16.20;99.90;;;;;;4903692;29;20243;-72
2023/09/04 01:34:52;;;;;;;31.38;20.33;;;16.20;99.90;;;;;;4893187;29;20155;-72
2023/09/04 01:37:19;;;;;;;32.10;19.67;;;16.20;99.90;;;;;;4897577;29;20036;-72
2023/09/04 01:39:47;;;;;;;21.63;14.57;;;16.10;99.90;;;;;;4899445;29;20115;-72
2023/09/04 01:42:13;;;;;;;22.33;14.70;;;16.10;99.90;;;;;;4898793;29;20091;-72
2023/09/04 01:44:40;;;;;;;18.77;13.10;;;16.10;99.90;;;;;;4901355;29;20393;-72
2023/09/04 01:47:06;;;;;;;19.83;13.90;;;16.00;99.90;;;;;;4901975;29;20044;-72
2023/09/04 01:49:32;;;;;;;16.17;12.18;;;15.90;99.90;;;;;;4903545;29;20067;-72
2023/09/04 01:52:00;;;;;;;20.52;11.77;;;15.90;99.90;;;;;;4894639;29;20488;-72
2023/09/04 01:54:26;;;;;;;19.70;13.80;;;15.90;99.90;;;;;;4898413;29;20025;-72
2023/09/04 01:56:52;;;;;;;19.88;13.65;;;15.80;99.90;;;;;;4896784;29;20082;-72
2023/09/04 01:59:18;;;;;;;22.50;15.98;;;15.80;99.90;;;;;;4894299;29;20028;-72
2023/09/04 02:01:43;;;;;;;25.40;17.00;;;15.80;99.90;;;;;;4896254;29;20028;-72
2023/09/04 02:04:09;;;;;;;28.80;18.13;;;15.80;99.90;;;;;;4899369;29;20139;-72
2023/09/04 02:06:35;;;;;;;29.17;18.65;;;15.80;99.90;;;;;;4900644;29;20506;-72
2023/09/04 02:09:00;;;;;;;32.70;22.23;;;15.80;99.90;;;;;;4892211;29;20033;-72
2023/09/04 02:11:26;;;;;;;36.35;22.98;;;15.80;99.90;;;;;;4880103;29;20076;-72
2023/09/04 02:13:51;;;;;;;38.85;23.23;;;15.80;99.90;;;;;;4898115;29;20024;-72
2023/09/04 02:16:17;;;;;;;37.38;23.83;;;15.90;99.90;;;;;;4897787;29;20670;-72
2023/09/04 02:18:43;;;;;;;44.90;26.67;;;15.90;99.90;;;;;;4899931;29;20456;-72
2023/09/04 02:21:09;;;;;;;40.08;26.55;;;15.90;99.90;;;;;;4900872;29;20368;-71
2023/09/04 02:23:34;;;;;;;41.00;26.98;;;15.90;99.90;;;;;;4900772;29;20029;-72
2023/09/04 02:26:01;;;;;;;42.88;26.40;;;15.90;99.90;;;;;;4894138;29;20568;-72
2023/09/04 02:28:26;;;;;;;44.17;28.55;;;15.90;99.90;;;;;;4898153;29;20028;-72
2023/09/04 02:30:52;;;;;;;44.30;27.55;;;15.90;99.90;;;;;;4896305;29;20050;-72
2023/09/04 02:33:17;;;;;;;40.92;26.08;;;15.90;99.90;;;;;;4900525;29;20039;-72
2023/09/04 02:35:43;;;;;;;41.58;26.63;;;15.90;99.90;;;;;;4900534;29;20032;-72
2023/09/04 02:38:09;;;;;;;39.63;25.38;;;15.90;99.90;;;;;;4900980;29;20089;-72
2023/09/04 02:40:34;;;;;;;38.42;25.15;;;15.90;99.90;;;;;;4904710;29;20605;-72
2023/09/04 02:43:00;;;;;;;39.80;25.42;;;15.80;99.90;;;;;;4894699;29;20111;-72
2023/09/04 02:45:25;;;;;;;40.60;24.30;;;15.80;99.90;;;;;;4899896;29;20799;-72
2023/09/04 02:47:51;;;;;;;33.45;22.73;;;15.80;99.90;;;;;;4904742;29;20031;-72
2023/09/04 02:50:17;;;;;;;38.10;24.70;;;15.80;99.90;;;;;;4904081;29;20368;-72
2023/09/04 02:52:43;;;;;;;36.60;23.35;;;15.80;99.90;;;;;;4917656;29;20051;-72
2023/09/04 02:55:08;;;;;;;33.38;21.80;;;15.80;99.90;;;;;;4916901;29;20098;-71
2023/09/04 02:57:34;;;;;;;33.78;21.38;;;15.80;99.90;;;;;;4898924;29;20197;-72
2023/09/04 03:00:01;;;;;;;28.35;19.17;;;15.70;99.90;;;;;;4900492;29;20104;-72
2023/09/04 03:02:26;;;;;;;25.50;18.42;;;15.70;99.90;;;;;;4900412;29;20429;-72
2023/09/04 03:04:54;;;;;;;28.23;18.65;;;15.70;99.90;;;;;;4901327;29;20032;-72
2023/09/04 03:07:19;;;;;;;31.45;19.63;;;15.60;99.90;;;;;;4903979;29;20100;-72
2023/09/04 03:09:45;;;;;;;32.20;21.17;;;15.60;99.90;;;;;;4905051;29;20032;-72
2023/09/04 03:12:11;;;;;;;31.40;20.95;;;15.60;99.90;;;;;;4918030;29;20145;-72
2023/09/04 03:14:36;;;;;;;29.85;20.65;;;15.60;99.90;;;;;;4900570;29;20124;-72
2023/09/04 03:17:04;;;;;;;32.10;20.60;;;15.60;99.90;;;;;;4896404;29;20029;-72
2023/09/04 03:19:30;;;;;;;32.60;19.77;;;15.60;99.90;;;;;;4898073;29;20096;-72
2023/09/04 03:21:55;;;;;;;26.48;18.02;;;15.60;99.90;;;;;;4903434;29;20484;-72
2023/09/04 03:24:23;;;;;;;26.65;18.67;;;15.60;99.90;;;;;;4898408;29;20734;-72
2023/09/04 03:26:49;;;;;;;29.88;20.38;;;15.50;99.90;;;;;;4889303;29;20063;-72
2023/09/04 03:29:15;;;;;;;35.03;22.17;;;15.50;99.90;;;;;;4885537;29;20517;-72
2023/09/04 03:31:41;;;;;;;33.00;21.38;;;15.50;99.90;;;;;;4885523;29;20049;-72
2023/09/04 03:34:07;;;;;;;36.85;23.90;;;15.50;99.90;;;;;;4893338;29;20039;-71
2023/09/04 03:36:32;;;;;;;34.78;23.83;;;15.50;99.90;;;;;;4902997;29;20062;-72
2023/09/04 03:38:58;;;;;;;36.55;23.73;;;15.50;99.90;;;;;;4904361;29;20051;-72
2023/09/04 03:41:24;;;;;;;35.90;23.83;;;15.50;99.90;;;;;;4916990;29;20132;-72
2023/09/04 03:43:50;;;;;;;37.38;23.98;;;15.50;99.90;;;;;;4917451;29;20470;-72
2023/09/04 03:46:16;;;;;;;35.78;23.88;;;15.50;99.90;;;;;;4901832;29;20098;-72
2023/09/04 03:48:41;;;;;;;36.22;22.95;;;15.50;99.90;;;;;;4903470;29;20059;-72
2023/09/04 03:51:07;;;;;;;35.60;23.58;;;15.50;99.90;;;;;;4902209;29;20091;-72
2023/09/04 03:53:33;;;;;;;40.83;24.50;;;15.50;99.90;;;;;;4903398;29;20531;-72
2023/09/04 03:56:03;;;;;;;29.42;21.23;;;15.40;99.90;;;;;;4902327;29;20040;-72
2023/09/04 03:58:28;;;;;;;31.30;21.48;;;15.40;99.90;;;;;;4902038;29;20079;-72
2023/09/04 04:00:58;;;;;;;26.98;19.30;;;15.40;99.90;;;;;;4902267;29;20036;-72
2023/09/04 04:03:23;;;;;;;30.30;21.02;;;15.40;99.90;;;;;;4903061;29;20036;-72
2023/09/04 04:05:49;;;;;;;32.72;21.67;;;15.40;99.90;;;;;;4903643;29;20043;-72
2023/09/04 04:08:15;;;;;;;35.53;23.50;;;15.40;99.90;;;;;;4893631;29;20032;-72
2023/09/04 04:10:40;;;;;;;36.33;23.45;;;15.40;99.90;;;;;;4890099;29;20118;-72
2023/09/04 04:13:06;;;;;;;39.05;24.42;;;15.40;99.90;;;;;;4902135;29;20420;-72
2023/09/04 04:15:31;;;;;;;41.55;25.25;;;15.30;99.90;;;;;;4901735;29;20035;-72
2023/09/04 04:17:57;;;;;;;36.85;24.23;;;15.30;99.90;;;;;;4891077;29;20482;-72
2023/09/04 04:20:23;;;;;;;39.40;25.17;;;15.30;99.90;;;;;;4899931;29;20522;-72
2023/09/04 04:22:48;;;;;;;38.42;24.35;;;15.30;99.90;;;;;;4899911;29;20028;-72
2023/09/04 04:25:14;;;;;;;35.30;22.27;;;15.30;99.90;;;;;;4900958;29;20660;-71
2023/09/04 04:27:41;;;;;;;35.35;22.10;;;15.30;99.90;;;;;;4898748;29;20046;-72
2023/09/04 04:30:10;;;;;;;31.38;21.23;;;15.30;99.90;;;;;;4902124;29;20419;-72
2023/09/04 04:32:37;;;;;;;28.40;20.00;;;15.30;99.90;;;;;;4899695;29;20032;-72
2023/09/04 04:35:03;;;;;;;30.05;20.35;;;15.20;99.90;;;;;;4900026;29;20448;-72
2023/09/04 04:37:28;;;;;;;25.75;18.98;;;15.20;99.90;;;;;;4901175;29;20035;-72
2023/09/04 04:39:54;;;;;;;23.65;17.60;;;15.20;99.90;;;;;;4902261;29;20087;-72
2023/09/04 04:42:19;;;;;;;23.08;17.25;;;15.10;99.90;;;;;;4899752;29;20307;-72
2023/09/04 04:44:45;;;;;;;25.52;17.23;;;15.10;99.90;;;;;;4901347;29;20032;-72
2023/09/04 04:47:11;;;;;;;20.38;14.73;;;15.10;99.90;;;;;;4902162;29;20036;-72
2023/09/04 04:49:36;;;;;;;23.48;16.90;;;15.10;99.90;;;;;;4901747;29;20051;-72
2023/09/04 04:52:02;;;;;;;24.02;17.52;;;15.00;99.90;;;;;;4901075;29;20075;-72
2023/09/04 04:54:28;;;;;;;26.23;17.05;;;15.00;99.90;;;;;;4901883;29;20028;-72
2023/09/04 04:56:53;;;;;;;24.73;16.58;;;15.00;99.90;;;;;;4898857;29;20087;-72
2023/09/04 04:59:19;;;;;;;25.45;16.85;;;15.00;99.90;;;;;;4891231;29;20043;-72
2023/09/04 05:01:45;;;;;;;30.23;16.55;;;15.00;99.90;;;;;;4886807;29;20043;-72
2023/09/04 05:04:11;;;;;;;24.13;15.80;;;15.00;99.90;;;;;;4909053;29;20123;-72
2023/09/04 05:06:36;;;;;;;28.55;17.35;;;15.00;99.90;;;;;;4900131;29;20540;-72
2023/09/04 05:09:03;;;;;;;31.80;19.08;;;15.00;99.90;;;;;;4902710;29;20028;-72
2023/09/04 05:11:29;;;;;;;25.05;15.73;;;15.00;99.90;;;;;;4898441;29;20441;-72
2023/09/04 05:13:54;;;;;;;35.70;20.42;;;15.00;99.90;;;;;;4898194;29;20032;-72
2023/09/04 05:16:20;;;;;;;37.35;22.73;;;15.00;99.90;;;;;;4898914;29;20047;-71
2023/09/04 05:18:46;;;;;;;38.90;23.42;;;15.00;99.90;;;;;;4890247;29;20088;-72
2023/09/04 05:21:12;;;;;;;40.83;23.85;;;15.10;99.90;;;;;;4898823;29;20039;-72
2023/09/04 05:23:38;;;;;;;38.80;24.33;;;15.10;99.90;;;;;;4901088;29;20552;-72
2023/09/04 05:26:03;;;;;;;38.97;23.50;;;15.20;99.90;;;;;;4900493;29;20085;-72
2023/09/04 05:28:29;;;;;;;41.38;25.27;;;15.20;99.90;;;;;;4901892;29;20047;-72
2023/09/04 05:31:03;;;;;;;45.53;26.35;;;15.20;99.90;;;;;;4915583;29;20040;-72
2023/09/04 05:33:29;;;;;;;43.17;27.65;;;15.30;99.90;;;;;;4900782;29;20493;-72
2023/09/04 05:35:56;;;;;;;43.20;26.58;;;15.30;99.90;;;;;;4895912;29;20132;-72
2023/09/04 05:38:22;;;;;;;39.72;23.23;;;15.30;99.90;;;;;;4898249;29;20385;-72
2023/09/04 05:41:00;;;;;;;36.15;21.05;;;15.30;99.90;;;;;;4912422;29;20040;-72
2023/09/04 05:43:25;;;;;;;23.48;14.90;;;15.20;99.90;;;;;;4898558;29;20036;-71
2023/09/04 05:45:51;;;;;;;25.25;15.93;;;15.20;99.90;;;;;;4898654;29;20039;-72
2023/09/04 05:48:17;;;;;;;19.00;14.00;;;15.20;99.90;;;;;;4895302;29;20048;-72
2023/09/04 05:50:43;;;;;;;19.63;14.45;;;15.10;99.90;;;;;;4897465;29;20051;-72
2023/09/04 05:53:08;;;;;;;27.98;17.80;;;15.20;99.90;;;;;;4902225;29;20064;-72
2023/09/04 05:55:36;;;;;;;33.05;19.38;;;15.20;99.90;;;;;;4900889;29;20035;-72
2023/09/04 05:58:02;;;;;;;30.20;18.20;;;15.20;99.90;;;;;;4899459;29;20051;-72
2023/09/04 06:00:28;;;;;;;28.15;17.85;;;15.30;99.90;;;;;;4900529;29;20272;-72
2023/09/04 06:02:56;;;;;;;27.02;17.98;;;15.30;99.90;;;;;;4898131;29;20936;-72
2023/09/04 06:05:22;;;;;;;21.92;16.25;;;15.40;99.90;;;;;;4897516;29;20252;-72
2023/09/04 06:07:48;;;;;;;21.52;16.13;;;15.40;99.90;;;;;;4896172;29;20393;-72
2023/09/04 06:10:13;;;;;;;20.50;16.02;;;15.50;99.90;;;;;;4899794;29;20047;-72
2023/09/04 06:12:39;;;;;;;20.45;15.57;;;15.50;99.90;;;;;;4900889;29;20047;-72
2023/09/04 06:15:05;;;;;;;26.30;18.45;;;15.60;99.90;;;;;;4904002;29;20281;-72
2023/09/04 06:17:31;;;;;;;25.95;17.17;;;15.70;99.90;;;;;;4904665;29;20036;-72
2023/09/04 06:19:57;;;;;;;30.70;18.90;;;15.70;99.90;;;;;;4906009;29;20098;-72
2023/09/04 06:22:22;;;;;;;40.13;24.80;;;15.90;99.90;;;;;;4903655;29;20484;-72
2023/09/04 06:24:48;;;;;;;41.40;26.42;;;15.90;99.90;;;;;;4900646;29;20055;-72
2023/09/04 06:27:14;;;;;;;41.90;25.33;;;16.00;99.90;;;;;;4895251;29;20459;-72
2023/09/04 06:29:40;;;;;;;45.20;26.52;;;16.10;99.90;;;;;;4894414;29;20278;-72
2023/09/04 06:32:06;;;;;;;37.95;24.50;;;16.20;99.90;;;;;;4901342;29;20099;-72
2023/09/04 06:34:31;;;;;;;40.70;25.65;;;16.30;99.90;;;;;;4903633;29;20036;-72
2023/09/04 06:36:57;;;;;;;33.50;22.23;;;16.40;99.90;;;;;;4900814;29;20445;-72
2023/09/04 06:39:22;;;;;;;23.88;17.15;;;16.50;99.90;;;;;;4902745;29;20028;-71
2023/09/04 06:41:49;;;;;;;24.40;16.77;;;16.60;99.90;;;;;;4897424;29;20028;-72
2023/09/04 06:44:14;;;;;;;26.20;17.88;;;16.70;99.90;;;;;;4902564;29;20674;-71
2023/09/04 06:46:40;;;;;;;23.85;16.98;;;16.80;99.90;;;;;;4908706;29;20115;-72
2023/09/04 06:49:06;;;;;;;25.60;17.13;;;16.80;99.90;;;;;;4900537;29;20044;-71
2023/09/04 06:51:32;;;;;;;36.83;20.42;;;16.90;99.90;;;;;;4898049;29;20555;-72
2023/09/04 06:53:58;;;;;;;32.45;21.13;;;16.90;99.90;;;;;;4900642;29;20048;-71
2023/09/04 06:56:24;;;;;;;39.13;22.80;;;17.00;99.90;;;;;;4901142;29;20186;-71
2023/09/04 06:58:49;;;;;;;39.67;23.40;;;17.10;99.90;;;;;;4901974;29;20151;-71
2023/09/04 07:01:15;;;;;;;37.28;24.00;;;17.30;99.90;;;;;;4903024;29;20131;-71
2023/09/04 07:03:41;;;;;;;34.72;21.67;;;17.60;99.90;;;;;;4900918;29;20124;-72
2023/09/04 07:06:07;;;;;;;29.70;19.73;;;18.00;99.90;;;;;;4901387;29;20260;-71
2023/09/04 07:08:33;;;;;;;29.17;18.95;;;18.30;99.90;;;;;;4904472;29;20024;-71
2023/09/04 07:10:58;;;;;;;29.65;19.27;;;18.40;99.90;;;;;;4901302;29;20039;-72
2023/09/04 07:13:24;;;;;;;31.23;19.23;;;18.50;99.90;;;;;;4900622;29;20036;-72
2023/09/04 07:15:50;;;;;;;28.08;19.50;;;18.50;99.90;;;;;;4916206;29;20519;-71
2023/09/04 07:18:15;;;;;;;25.30;17.50;;;18.60;99.90;;;;;;4900208;29;20032;-72
2023/09/04 07:20:41;;;;;;;27.67;17.80;;;18.60;99.90;;;;;;4914951;29;20028;-71
2023/09/04 07:23:06;;;;;;;27.55;19.30;;;18.70;99.90;;;;;;4893719;29;20119;-71
2023/09/04 07:25:32;;;;;;;28.42;19.08;;;18.80;99.90;;;;;;4890201;29;20377;-72
2023/09/04 07:27:58;;;;;;;29.70;18.40;;;18.80;99.90;;;;;;4882170;29;20028;-72
2023/09/04 07:30:24;;;;;;;42.10;25.42;;;18.90;99.90;;;;;;4890216;29;20055;-72
2023/09/04 07:32:49;;;;;;;31.92;20.02;;;18.90;99.90;;;;;;4887896;29;20040;-72
2023/09/04 07:35:15;;;;;;;28.13;18.25;;;18.90;99.90;;;;;;4892717;29;20028;-72
2023/09/04 07:37:41;;;;;;;24.60;16.05;;;19.00;99.90;;;;;;4894245;29;20162;-72
2023/09/04 07:40:08;;;;;;;28.73;17.48;;;19.10;99.90;;;;;;4903534;29;20476;-72
2023/09/04 07:42:34;;;;;;;25.42;15.43;;;19.20;99.90;;;;;;4912888;29;20127;-72
2023/09/04 07:45:00;;;;;;;24.77;15.75;;;19.80;99.90;;;;;;4894714;29;20040;-72
2023/09/04 07:47:25;;;;;;;18.85;14.07;;;20.90;99.90;;;;;;4883690;29;20051;-72
2023/09/04 07:49:52;;;;;;;21.63;12.52;;;23.20;99.90;;;;;;4895530;29;20461;-72
2023/09/04 07:52:18;;;;;;;17.08;10.50;;;25.90;99.90;;;;;;4894994;29;20036;-72
2023/09/04 07:54:44;;;;;;;14.45;8.68;;;28.30;99.90;;;;;;4895972;29;20052;-72
2023/09/04 07:57:10;;;;;;;11.48;7.95;;;30.40;99.90;;;;;;4891527;29;20082;-72
2023/09/04 07:59:37;;;;;;;10.95;8.52;;;32.00;98.00;;;;;;4890495;29;20677;-73
2023/09/04 08:02:03;;;;;;;10.57;7.32;;;33.40;91.30;;;;;;4897113;29;20076;-73
2023/09/04 08:04:29;;;;;;;9.38;6.45;;;34.40;86.30;;;;;;4889022;29;20112;-73
2023/09/04 08:06:56;;;;;;;8.77;6.60;;;34.90;83.50;;;;;;4899816;29;20518;-72
2023/09/04 08:09:22;;;;;;;8.10;6.18;;;35.40;78.30;;;;;;4890553;29;20028;-72
2023/09/04 08:11:47;;;;;;;8.65;6.63;;;35.90;79.50;;;;;;4901210;29;20036;-73
2023/09/04 08:14:13;;;;;;;7.05;6.30;;;36.40;68.80;;;;;;4913488;29;20066;-73
2023/09/04 08:16:38;;;;;;;6.47;5.13;;;36.70;69.20;;;;;;4896629;29;20059;-72
2023/09/04 08:19:04;;;;;;;6.50;5.15;;;37.00;66.50;;;;;;4894726;29;20437;-72
2023/09/04 08:21:29;;;;;;;6.90;4.93;;;37.20;64.30;;;;;;4897410;29;20035;-73
2023/09/04 08:23:55;;;;;;;5.45;4.20;;;37.00;65.90;;;;;;4891353;29;20377;-72
2023/09/04 08:26:21;;;;;;;5.88;4.05;;;37.10;64.10;;;;;;4886576;29;20055;-73
2023/09/04 08:28:46;;;;;;;4.75;3.70;;;37.40;64.10;;;;;;4893699;29;20074;-73
2023/09/04 08:31:12;;;;;;;5.35;3.47;;;37.80;61.50;;;;;;4897977;29;20508;-73
2023/09/04 08:33:38;;;;;;;4.85;3.75;;;38.10;59.90;;;;;;4899314;29;20088;-73
2023/09/04 08:36:04;;;;;;;4.47;3.40;;;38.40;61.80;;;;;;4908811;29;20136;-73
2023/09/04 08:38:29;;;;;;;6.80;5.03;;;38.70;56.60;;;;;;4883299;29;20476;-73
2023/09/04 08:40:59;;;;;;;6.63;4.55;;;39.10;55.40;;;;;;4895731;29;20039;-73
2023/09/04 08:43:30;;;;;;;5.87;3.10;;;39.20;56.40;;;;;;4900420;29;20077;-73
2023/09/04 08:46:00;;;;;;;4.15;3.22;;;39.30;58.30;;;;;;4899263;29;20032;-73
2023/09/04 08:48:29;;;;;;;4.43;3.70;;;39.50;53.50;;;;;;4896638;29;20135;-74
2023/09/04 08:50:56;;;;;;;5.38;3.38;;;39.20;53.30;;;;;;4898584;29;20040;-73
2023/09/04 08:53:22;;;;;;;4.45;3.10;;;39.10;55.90;;;;;;4896707;29;20036;-73
2023/09/04 08:55:49;;;;;;;5.28;3.13;;;39.00;54.10;;;;;;4893532;29;20057;-74
2023/09/04 08:58:16;;;;;;;5.47;2.58;;;39.50;55.80;;;;;;4900161;29;20341;-74
2023/09/04 09:00:43;;;;;;;4.95;2.92;;;39.70;55.70;;;;;;4900635;29;20539;-73
2023/09/04 09:03:11;;;;;;;3.72;2.80;;;39.90;50.20;;;;;;4899779;29;20399;-73
2023/09/04 09:05:37;;;;;;;4.07;2.55;;;39.90;52.30;;;;;;4899183;29;20088;-73
2023/09/04 09:08:04;;;;;;;5.07;2.45;;;40.30;47.90;;;;;;4898859;29;20028;-73
2023/09/04 09:10:30;;;;;;;4.30;2.30;;;40.80;48.30;;;;;;4898507;29;20418;-74
2023/09/04 09:12:55;;;;;;;4.18;2.42;;;41.10;48.20;;;;;;4895487;29;20173;-74
2023/09/04 09:15:21;;;;;;;4.38;2.72;;;41.00;50.30;;;;;;4898207;29;20047;-73
2023/09/04 09:17:53;;;;;;;4.97;2.35;;;41.10;52.90;;;;;;4900263;29;20162;-73
2023/09/04 09:20:39;;;;;;;4.97;2.83;;;41.00;48.60;;;;;;4898240;29;20035;-73
2023/09/04 09:23:05;;;;;;;2.65;2.30;;;41.40;47.70;;;;;;4897070;29;20026;-74
2023/09/04 09:25:32;;;;;;;4.47;2.50;;;41.60;46.60;;;;;;4895008;29;20071;-73
2023/09/04 09:28:00;;;;;;;3.08;2.70;;;41.30;44.90;;;;;;4894856;29;20039;-73
2023/09/04 09:30:38;;;;;;;2.47;2.20;;;41.40;44.80;;;;;;4898459;29;20177;-73
2023/09/04 09:33:15;;;;;;;2.72;2.10;;;41.60;47.50;;;;;;4885926;29;20025;-73
2023/09/04 09:35:41;;;;;;;3.35;2.25;;;41.70;46.60;;;;;;4885928;29;20174;-74
2023/09/04 09:38:07;;;;;;;4.40;2.03;;;41.80;44.20;;;;;;4885890;29;20193;-73
2023/09/04 09:40:33;;;;;;;2.90;2.20;;;41.80;45.30;;;;;;4896869;29;20493;-72
2023/09/04 09:43:00;;;;;;;3.45;2.22;;;41.80;44.20;;;;;;4897124;29;20098;-73
2023/09/04 09:45:33;;;;;;;2.30;2.10;;;41.90;43.70;;;;;;4901012;29;20123;-73
2023/09/04 09:48:07;;;;;;;4.68;2.22;;;42.10;45.00;;;;;;4903639;29;20692;-73
2023/09/04 09:50:34;;;;;;;3.97;2.08;;;42.60;43.10;;;;;;4905902;29;20316;-72
2023/09/04 09:53:01;;;;;;;2.80;2.40;;;42.60;45.90;;;;;;4903886;29;20412;-73
2023/09/04 09:55:30;;;;;;;2.47;2.15;;;42.00;47.60;;;;;;4905285;29;20035;-72
2023/09/04 09:57:58;;;;;;;4.18;2.25;;;41.20;42.30;;;;;;4885037;29;20037;-73
2023/09/04 10:00:24;;;;;;;2.28;1.95;;;41.10;45.10;;;;;;4901758;29;20107;-72
2023/09/04 10:02:50;;;;;;;2.90;2.20;;;41.60;43.60;;;;;;4905523;29;20348;-73
2023/09/04 10:05:16;;;;;;;2.80;2.00;;;41.80;42.80;;;;;;4905123;29;20635;-73
2023/09/04 10:07:46;;;;;;;2.97;2.15;;;41.00;44.60;;;;;;4904273;29;20216;-73
2023/09/04 10:10:12;;;;;;;;;;;41.20;47.30;;;;;;4906287;29;20142;-73
2023/09/04 10:12:48;;;;;;;3.03;2.28;;;41.40;42.50;;;;;;4902595;29;19918;-73
2023/09/04 10:15:22;;;;;;;2.83;2.10;;;41.10;44.00;;;;;;4919344;29;20032;-73
2023/09/04 10:18:01;;;;;;;4.55;2.60;;;41.50;43.80;;;;;;4905566;29;20488;-73
2023/09/04 10:20:27;;;;;;;3.95;2.50;;;41.50;44.10;;;;;;4900524;29;20036;-73
2023/09/04 10:23:10;;;;;;;3.13;2.20;;;41.40;42.60;;;;;;4902000;29;20040;-73
2023/09/04 10:26:01;;;;;;;2.85;2.15;;;41.20;42.90;;;;;;4901689;29;20039;-73
2023/09/04 10:28:33;;;;;;;4.45;2.28;;;41.40;42.50;;;;;;4901713;29;20020;-73
2023/09/04 10:31:00;;;;;;;4.55;2.40;;;41.30;43.10;;;;;;4904184;29;20050;-73
2023/09/04 10:33:26;;;;;;;3.88;2.28;;;41.20;45.00;;;;;;4898151;29;20103;-73
2023/09/04 10:35:54;;;;;;;3.08;2.38;;;41.20;44.30;;;;;;4901415;29;20050;-73
2023/09/04 10:38:21;;;;;;;3.35;2.40;;;41.80;45.90;;;;;;4891060;29;20155;-73
2023/09/04 10:40:48;;;;;;;3.67;2.22;;;42.20;42.80;;;;;;4894218;29;20036;-74
2023/09/04 10:43:14;;;;;;;2.80;2.22;;;42.70;42.70;;;;;;4899133;29;20032;-73
2023/09/04 10:45:39;;;;;;;3.50;2.30;;;42.90;43.30;;;;;;4901936;29;20032;-73
2023/09/04 10:48:06;;;;;;;3.92;2.30;;;42.40;44.60;;;;;;4894722;29;20067;-73
2023/09/04 10:50:39;;;;;;;4.40;2.60;;;42.60;42.70;;;;;;4898285;29;20135;-73
2023/09/04 10:53:06;;;;;;;3.28;2.10;;;42.10;43.50;;;;;;4901926;29;20111;-73
2023/09/04 10:55:37;;;;;;;3.35;2.25;;;41.50;42.60;;;;;;4903220;29;20123;-73
2023/09/04 10:58:04;;;;;;;4.95;2.40;;;41.80;45.20;;;;;;4902508;29;20119;-73
2023/09/04 11:00:35;;;;;;;2.72;2.50;;;41.30;43.10;;;;;;4900804;29;20099;-73
2023/09/04 11:03:17;;;;;;;3.63;2.17;;;41.40;43.90;;;;;;4903706;29;20360;-73
2023/09/04 11:06:01;;;;;;;2.63;1.88;;;41.90;41.90;;;;;;4901516;29;20123;-73
2023/09/04 11:08:34;;;;;;;2.92;2.50;;;41.90;43.80;;;;;;4898888;29;20032;-73
2023/09/04 11:11:03;;;;;;;3.70;2.42;;;41.90;42.30;;;;;;4901899;29;20464;-73
2023/09/04 11:13:29;;;;;;;2.63;2.30;;;42.20;42.50;;;;;;4895316;29;20506;-73
2023/09/04 11:15:55;;;;;;;2.50;2.30;;;42.50;42.10;;;;;;4900490;29;20032;-73
2023/09/04 11:18:27;;;;;;;3.17;2.35;;;42.20;42.60;;;;;;4900510;29;20028;-73
2023/09/04 11:20:54;;;;;;;2.55;2.08;;;42.10;42.90;;;;;;4897880;29;20036;-73
2023/09/04 11:23:23;;;;;;;3.28;2.50;;;41.60;42.20;;;;;;4900885;29;20028;-73
2023/09/04 11:25:52;;;;;;;2.60;2.33;;;40.50;43.10;;;;;;4892283;29;20183;-73
2023/09/04 11:28:22;;;;;;;3.38;2.70;;;39.60;44.30;;;;;;4898577;29;20623;-73
2023/09/04 11:30:49;;;;;;;2.78;2.17;;;37.90;48.10;;;;;;4894389;29;20032;-73
2023/09/04 11:33:15;;;;;;;3.53;2.90;;;36.50;50.00;;;;;;4898275;29;20565;-73
2023/09/04 11:35:41;;;;;;;2.55;2.35;;;35.20;49.50;;;;;;4914750;29;20165;-73
2023/09/04 11:38:23;;;;;;;3.00;2.70;;;34.40;50.70;;;;;;4899966;29;20531;-73
2023/09/04 11:40:49;;;;;;;3.35;2.30;;;34.20;52.50;;;;;;4906989;29;20034;-73
2023/09/04 11:43:15;;;;;;;3.53;2.50;;;34.00;54.30;;;;;;4231343;29;10000628;-73
2023/09/04 11:45:41;;;;;;;3.38;3.00;;;33.90;53.90;;;;;;4897619;29;20322;-73
2023/09/04 11:48:06;;;;;;;5.57;2.47;;;33.60;56.00;;;;;;4897981;29;20108;-73
2023/09/04 11:50:32;;;;;;;3.95;2.80;;;33.60;58.00;;;;;;4893295;29;20044;-73
2023/09/04 11:52:59;;;;;;;3.35;2.83;;;33.60;57.40;;;;;;4895254;29;20032;-73
2023/09/04 11:55:24;;;;;;;4.43;2.78;;;33.60;60.40;;;;;;4892050;29;20422;-73
2023/09/04 11:57:50;;;;;;;3.13;2.80;;;33.20;54.80;;;;;;4893261;29;20032;-73
2023/09/04 12:00:16;;;;;;;2.63;2.40;;;32.90;58.10;;;;;;4899068;29;20032;-73
2023/09/04 12:02:45;;;;;;;2.53;2.33;;;32.90;54.40;;;;;;4896527;29;20110;-73
2023/09/04 12:05:14;;;;;;;5.20;2.63;;;32.60;56.70;;;;;;4897461;29;20546;-73
2023/09/04 12:07:40;;;;;;;2.85;2.45;;;32.30;56.30;;;;;;4902394;29;20086;-73
2023/09/04 12:10:06;;;;;;;3.50;2.88;;;32.30;62.80;;;;;;4904459;29;20039;-73
2023/09/04 12:12:33;;;;;;;3.97;2.55;;;32.10;55.00;;;;;;4883650;29;20040;-73
2023/09/04 12:14:59;;;;;;;2.80;2.30;;;32.10;58.10;;;;;;4887023;29;20032;-74
2023/09/04 12:17:29;;;;;;;4.35;2.50;;;32.00;57.40;;;;;;4890398;29;20100;-75
2023/09/04 12:19:55;;;;;;;3.22;2.50;;;31.90;56.10;;;;;;4890628;29;20218;-73
2023/09/04 12:22:21;;;;;;;2.80;2.40;;;32.00;60.20;;;;;;4893061;29;20476;-73
2023/09/04 12:25:06;;;;;;;3.38;2.40;;;31.80;55.90;;;;;;4890289;29;20456;-73
2023/09/04 12:27:34;;;;;;;2.47;1.95;;;31.80;55.50;;;;;;4885400;29;20020;-73
2023/09/04 12:29:59;;;;;;;2.45;1.85;;;31.70;54.10;;;;;;4880413;29;20076;-73
2023/09/04 12:32:26;;;;;;;3.17;1.90;;;31.40;49.00;;;;;;4887157;29;20469;-73